Terminal Aerodrome Forecast
Issued by NWS

Home | Current Version | Previous Version | Graphics & Text | Print | Product List | Glossary On
Versions: 1 2 3 4 5 6 7 8 9 10 11 12 13 14 15 16 17
000
FTUS43 KMPX 221458 AAA
TAFAXN
TAF AMD
KAXN 221458Z 2215/2312 22005KT 1SM BR OVC002
      TEMPO 2215/2217 3SM BR SCT003 BKN009
     FM221700 20007KT 5SM BR SCT009 SCT100
     FM221800 22008KT P6SM BKN100
     FM230600 21013KT P6SM SCT030 OVC050
     FM230900 23012KT P6SM VCSH SCT020 OVC040=

USA.gov is the U.S. government's official web portal to all federal, state and local government web resources and services.